Anniston, AL (36201)

4:47 AM CST on December 10, 2016 (GMT -0600)
saks | | Change Station

Elev 692 ft 33.72 °N, 85.86 °W | Updated 22 seconds ago

Clear
Clear
17.9 °F
Feels Like 18 °F
N
0.0
Wind Variable Wind from NNW

Today
High -- | Low -- °F
--% Chance of Precip.
Yesterday
High -- | Low -- °F
Precip. -- in
Pressure 30.57 in
Visibility 10.0 miles
Clouds Clear
Windchill 18 °F
Dew Point 16 °F
Humidity 93%
Rainfall 0.00 in
Snow Depth Not available.
6:37 AM 4:35 PM
Waxing Gibbous, 82% visible
METAR KANB 100953Z AUTO 27003KT 10SM CLR M06/M07 A3053 RMK AO2 SLP350 T10561072
Pressure 30.57 in
Visibility 10.0 miles
Clouds Clear
Windchill 18 °F
Dew Point 16 °F
Humidity 93%
Rainfall 0.00 in
Snow Depth Not available.
6:37 AM 4:35 PM
Waxing Gibbous, 82% visible
METAR KANB 100953Z AUTO 27003KT 10SM CLR M06/M07 A3053 RMK AO2 SLP350 T10561072

10-Day Weather Forecast

Almanac

Astronomy

Dec. 10, 2016 Rise Set
Actual Time
Civil Twilight
Nautical Twilight
Astronomical Twilight
Moon
Length of Visible Light
Length of Day
Tomorrow will be .
, % of the Moon is Illuminated

Today's Extremes

State Highs State Lows

Community

WunderPhotos

Upload Photos

1,956,536 photos uploaded!

WunderBlog® & News

Nearby

Air Quality

  Air Quality AQ Index Pollutant
Not available.

Snow Depth

Station Depth Elevation

Earthquake Activity

City Distance Mag. Time & Date
Minimum magnitude displayed is 2.5.

Coastal Water Temperatures

Place Temperature

Stations

Nearby Weather Stations

Station Location Temp. Windchill Dew Point Humidity Wind Precip. Elev Updated Type
                   

Watches & Warnings

There are currently no watches in effect.